Time;durP1;ratioP1;P1;durP2;ratioP2;P2;SDS_P1;SDS_P2;PMS_P1;PMS_P2;Temp;Humidity;BMP_temperature;BMP_pressure;BME280_temperature;BME280_humidity;BME280_pressure;Samples;Min_cycle;Max_cycle;Signal;HPM_P1;HPM_P2
2022/07/12 00:01:43;;;;;;;2.55;1.52;;;;;;;;;;5021731;28;20095;-74
2022/07/12 00:04:09;;;;;;;2.80;1.80;;;;;;;;;;5020648;28;20113;-72
2022/07/12 00:06:34;;;;;;;3.17;1.90;;;;;;;;;;5023803;28;20080;-73
2022/07/12 00:08:59;;;;;;;3.15;1.85;;;;;;;;;;5033353;28;20025;-73
2022/07/12 00:11:25;;;;;;;2.75;1.75;;;;;;;;;;5014099;28;20030;-73
2022/07/12 00:13:50;;;;;;;2.47;1.58;;;;;;;;;;5021270;28;20017;-73
2022/07/12 00:16:16;;;;;;;3.60;1.52;;;;;;;;;;5016346;28;20037;-72
2022/07/12 00:18:41;;;;;;;3.38;1.55;;;;;;;;;;5017659;28;20080;-73
2022/07/12 00:21:07;;;;;;;2.72;1.60;;;;;;;;;;5021008;28;20030;-73
2022/07/12 00:23:34;;;;;;;2.28;1.65;;;;;;;;;;5022046;28;20108;-72
2022/07/12 00:26:03;;;;;;;2.42;1.77;;;;;;;;;;5014870;28;20052;-71
2022/07/12 00:28:30;;;;;;;3.15;1.60;;;;;;;;;;5019516;28;20026;-72
2022/07/12 00:30:55;;;;;;;2.20;1.60;;;;;;;;;;5022297;28;20045;-73
2022/07/12 00:33:20;;;;;;;2.75;1.90;;;;;;;;;;5019222;28;20046;-73
2022/07/12 00:35:46;;;;;;;2.55;1.63;;;;;;;;;;5022342;28;20231;-73
2022/07/12 00:38:11;;;;;;;3.45;1.80;;;;;;;;;;5018518;28;20466;-73
2022/07/12 00:40:37;;;;;;;3.30;2.00;;;;;;;;;;5015781;28;20462;-73
2022/07/12 00:43:02;;;;;;;3.45;1.52;;;;;;;;;;5020205;28;20025;-72
2022/07/12 00:45:28;;;;;;;2.63;1.80;;;;;;;;;;5020662;28;20500;-73
2022/07/12 00:47:53;;;;;;;2.55;1.85;;;;;;;;;;5016897;28;20473;-73
2022/07/12 00:50:22;;;;;;;3.63;1.80;;;;;;;;;;5022556;28;20017;-73
2022/07/12 00:52:50;;;;;;;2.78;1.98;;;;;;;;;;5022473;28;20124;-72
2022/07/12 00:55:17;;;;;;;2.70;2.10;;;;;;;;;;5017535;28;20037;-73
2022/07/12 00:57:43;;;;;;;3.47;2.30;;;;;;;;;;5017843;28;20033;-71
2022/07/12 01:00:12;;;;;;;3.20;2.50;;;;;;;;;;5022263;28;20041;-74
2022/07/12 01:02:38;;;;;;;3.50;2.53;;;;;;;;;;5033441;28;20018;-73
2022/07/12 01:05:05;;;;;;;3.53;2.80;;;;;;;;;;5023428;28;20037;-73
2022/07/12 01:07:31;;;;;;;3.33;2.80;;;;;;;;;;5018761;28;20034;-72
2022/07/12 01:09:58;;;;;;;3.90;2.70;;;;;;;;;;5021514;28;20036;-73
2022/07/12 01:12:24;;;;;;;3.80;2.83;;;;;;;;;;5017843;28;20140;-72
2022/07/12 01:14:50;;;;;;;3.72;2.67;;;;;;;;;;5015302;28;20524;-73
2022/07/12 01:17:21;;;;;;;3.50;2.45;;;;;;;;;;5020430;28;21492;-73
2022/07/12 01:19:50;;;;;;;3.00;2.30;;;;;;;;;;5018626;28;20029;-74
2022/07/12 01:22:17;;;;;;;3.78;2.75;;;;;;;;;;5018171;28;20068;-72
2022/07/12 01:24:43;;;;;;;4.15;2.72;;;;;;;;;;5018159;28;20104;-73
2022/07/12 01:27:10;;;;;;;3.30;2.40;;;;;;;;;;5024922;28;20509;-72
2022/07/12 01:29:35;;;;;;;3.40;2.28;;;;;;;;;;5013634;28;20032;-73
2022/07/12 01:34:57;;;;;;;3.20;2.30;;;;;;;;;;5010187;28;20043;-72
2022/07/12 01:37:24;;;;;;;3.72;2.40;;;;;;;;;;5018286;28;20116;-72
2022/07/12 01:39:53;;;;;;;4.40;2.42;;;;;;;;;;5021279;28;20041;-74
2022/07/12 01:42:20;;;;;;;3.13;2.40;;;;;;;;;;5016547;28;20473;-73
2022/07/12 01:44:45;;;;;;;3.50;2.30;;;;;;;;;;5018615;28;20038;-73
2022/07/12 01:47:11;;;;;;;2.85;2.15;;;;;;;;;;5017134;28;20021;-73
2022/07/12 01:49:37;;;;;;;3.42;2.33;;;;;;;;;;5022875;28;20088;-72
2022/07/12 01:52:02;;;;;;;3.15;2.30;;;;;;;;;;5022852;28;20466;-74
2022/07/12 01:54:28;;;;;;;3.90;2.30;;;;;;;;;;5020829;28;20068;-74
2022/07/12 01:56:55;;;;;;;3.90;2.40;;;;;;;;;;5016104;28;20437;-72
2022/07/12 01:59:21;;;;;;;2.90;2.30;;;;;;;;;;5018749;28;20041;-73
2022/07/12 02:01:47;;;;;;;2.83;2.10;;;;;;;;;;5011682;28;20382;-74
2022/07/12 02:04:16;;;;;;;3.08;2.20;;;;;;;;;;5021512;28;20029;-73
2022/07/12 02:06:44;;;;;;;3.63;2.20;;;;;;;;;;5021358;28;20034;-73
2022/07/12 02:09:09;;;;;;;2.92;2.10;;;;;;;;;;5023174;28;20477;-72
2022/07/12 02:11:34;;;;;;;3.38;2.20;;;;;;;;;;5020069;28;20036;-73
2022/07/12 02:14:00;;;;;;;3.35;2.33;;;;;;;;;;5029295;28;20025;-73
2022/07/12 02:16:25;;;;;;;2.97;2.08;;;;;;;;;;5026736;28;20462;-72
2022/07/12 02:18:50;;;;;;;2.72;2.05;;;;;;;;;;5018951;28;21005;-73
2022/07/12 02:21:16;;;;;;;2.78;2.05;;;;;;;;;;5017888;28;20068;-73
2022/07/12 02:23:41;;;;;;;2.67;1.92;;;;;;;;;;5022444;28;20036;-73
2022/07/12 02:26:07;;;;;;;2.90;1.90;;;;;;;;;;5017810;28;20025;-73
2022/07/12 02:28:33;;;;;;;2.67;1.90;;;;;;;;;;5021168;28;20099;-73
2022/07/12 02:30:59;;;;;;;2.80;2.10;;;;;;;;;;5023153;28;20029;-72
2022/07/12 02:33:24;;;;;;;3.13;2.10;;;;;;;;;;5023436;28;20077;-73
2022/07/12 02:35:50;;;;;;;2.80;2.00;;;;;;;;;;5018044;28;20536;-72
2022/07/12 02:38:16;;;;;;;2.78;2.00;;;;;;;;;;5025214;28;20116;-73
2022/07/12 02:40:53;;;;;;;3.65;2.03;;;;;;;;;;5021625;28;20064;-73
2022/07/12 02:43:26;;;;;;;3.25;2.17;;;;;;;;;;5024567;28;20080;-73
2022/07/12 02:45:52;;;;;;;3.50;2.00;;;;;;;;;;5022405;28;20764;-73
2022/07/12 02:48:18;;;;;;;3.72;2.35;;;;;;;;;;5017026;28;20032;-72
2022/07/12 02:50:45;;;;;;;3.33;2.35;;;;;;;;;;5023619;28;20021;-73
2022/07/12 02:53:11;;;;;;;3.42;2.20;;;;;;;;;;5023930;28;20029;-73
2022/07/12 02:55:37;;;;;;;3.40;2.13;;;;;;;;;;5017660;28;20386;-72
2022/07/12 02:58:03;;;;;;;4.32;2.20;;;;;;;;;;5022050;28;20040;-72
2022/07/12 03:00:29;;;;;;;3.10;2.13;;;;;;;;;;5021548;28;20112;-74
2022/07/12 03:02:55;;;;;;;3.40;2.40;;;;;;;;;;5025599;28;20155;-74
2022/07/12 03:05:20;;;;;;;3.55;2.38;;;;;;;;;;5017091;28;20037;-73
2022/07/12 03:07:45;;;;;;;3.55;2.28;;;;;;;;;;5025207;28;22004;-73
2022/07/12 03:10:11;;;;;;;3.28;2.10;;;;;;;;;;5024993;28;20032;-73
2022/07/12 03:12:37;;;;;;;3.60;2.35;;;;;;;;;;5028419;28;20036;-73
2022/07/12 03:15:04;;;;;;;3.80;2.28;;;;;;;;;;5022050;28;20500;-73
2022/07/12 03:17:29;;;;;;;4.10;2.47;;;;;;;;;;5023931;28;20037;-73
2022/07/12 03:19:54;;;;;;;3.90;2.45;;;;;;;;;;5018956;28;20033;-72
2022/07/12 03:22:20;;;;;;;3.55;2.42;;;;;;;;;;5039144;28;20528;-73
2022/07/12 03:24:45;;;;;;;4.05;2.40;;;;;;;;;;5025252;28;20029;-73
2022/07/12 03:27:10;;;;;;;3.85;2.35;;;;;;;;;;5017251;28;20022;-73
2022/07/12 03:29:36;;;;;;;4.22;2.42;;;;;;;;;;5016506;28;20033;-73
2022/07/12 03:32:02;;;;;;;3.75;2.40;;;;;;;;;;5022451;28;20046;-73
2022/07/12 03:34:28;;;;;;;4.05;2.35;;;;;;;;;;5024915;28;20104;-73
2022/07/12 03:36:53;;;;;;;4.13;2.70;;;;;;;;;;5019301;28;20029;-73
2022/07/12 03:39:18;;;;;;;3.80;2.60;;;;;;;;;;5021542;28;20952;-73
2022/07/12 03:41:44;;;;;;;4.10;2.80;;;;;;;;;;5022569;28;20482;-73
2022/07/12 03:44:09;;;;;;;3.78;2.70;;;;;;;;;;5021846;28;20393;-73
2022/07/12 03:46:35;;;;;;;4.40;2.70;;;;;;;;;;5023032;28;20044;-73
2022/07/12 03:49:00;;;;;;;4.88;2.70;;;;;;;;;;5018466;28;20021;-73
2022/07/12 03:51:26;;;;;;;3.50;2.50;;;;;;;;;;5023783;28;20496;-72
2022/07/12 03:53:52;;;;;;;4.25;2.90;;;;;;;;;;5025302;28;20064;-72
2022/07/12 03:59:01;;;;;;;4.20;2.65;;;;;;;;;;5016360;28;20095;-73
2022/07/12 04:01:27;;;;;;;3.75;2.63;;;;;;;;;;5016494;28;20029;-73
2022/07/12 04:03:52;;;;;;;4.90;2.85;;;;;;;;;;5020867;28;20397;-73
2022/07/12 04:06:17;;;;;;;3.83;2.83;;;;;;;;;;5016336;28;20034;-74
2022/07/12 04:08:43;;;;;;;4.40;2.88;;;;;;;;;;5019558;28;20128;-72
2022/07/12 04:11:08;;;;;;;4.15;3.00;;;;;;;;;;5023563;28;20029;-74
2022/07/12 04:13:33;;;;;;;4.50;3.20;;;;;;;;;;5020486;28;20029;-73
2022/07/12 04:15:59;;;;;;;4.35;3.10;;;;;;;;;;5022221;28;20339;-72
2022/07/12 04:18:24;;;;;;;4.93;3.58;;;;;;;;;;5018733;28;20052;-73
2022/07/12 04:20:50;;;;;;;4.85;3.58;;;;;;;;;;5021305;28;20470;-73
2022/07/12 04:23:15;;;;;;;4.75;3.28;;;;;;;;;;5021296;28;20057;-72
2022/07/12 04:25:40;;;;;;;5.63;2.88;;;;;;;;;;5021088;28;20037;-73
2022/07/12 04:28:06;;;;;;;4.10;2.55;;;;;;;;;;5020417;28;20488;-72
2022/07/12 04:30:31;;;;;;;3.20;2.33;;;;;;;;;;5022054;28;20018;-73
2022/07/12 04:32:56;;;;;;;3.97;2.17;;;;;;;;;;5021646;28;20085;-73
2022/07/12 04:35:22;;;;;;;3.25;2.25;;;;;;;;;;5028056;28;20635;-73
2022/07/12 04:37:47;;;;;;;3.15;2.22;;;;;;;;;;5018380;28;20029;-73
2022/07/12 04:40:12;;;;;;;3.30;2.30;;;;;;;;;;5022701;28;20071;-72
2022/07/12 04:42:38;;;;;;;4.28;2.40;;;;;;;;;;5025182;28;20029;-73
2022/07/12 04:45:04;;;;;;;3.40;2.50;;;;;;;;;;5021993;28;21767;-72
2022/07/12 04:47:29;;;;;;;3.20;2.33;;;;;;;;;;5019593;28;20037;-73
2022/07/12 04:49:54;;;;;;;3.17;2.33;;;;;;;;;;5019466;28;20472;-73
2022/07/12 04:52:20;;;;;;;3.60;2.65;;;;;;;;;;5022105;28;20082;-74
2022/07/12 04:54:46;;;;;;;4.63;2.90;;;;;;;;;;5022791;28;20045;-73
2022/07/12 04:57:12;;;;;;;3.58;2.40;;;;;;;;;;5018508;28;20025;-72
2022/07/12 04:59:37;;;;;;;3.33;2.67;;;;;;;;;;5019135;28;21799;-73
2022/07/12 05:02:03;;;;;;;4.25;2.72;;;;;;;;;;5014190;28;20492;-73
2022/07/12 05:04:32;;;;;;;4.05;3.00;;;;;;;;;;5020153;28;20056;-74
2022/07/12 05:06:58;;;;;;;4.50;3.38;;;;;;;;;;5012698;28;20493;-73
2022/07/12 05:09:23;;;;;;;4.50;3.85;;;;;;;;;;5016527;28;20134;-72
2022/07/12 05:11:48;;;;;;;5.65;3.03;;;;;;;;;;5017181;28;20025;-73
2022/07/12 05:14:14;;;;;;;3.90;2.92;;;;;;;;;;5019316;28;20029;-73
2022/07/12 05:16:39;;;;;;;4.75;3.20;;;;;;;;;;5018700;28;20960;-73
2022/07/12 05:19:04;;;;;;;3.83;2.92;;;;;;;;;;5020356;28;20056;-72
2022/07/12 05:21:30;;;;;;;4.13;2.80;;;;;;;;;;5013733;28;20165;-73
2022/07/12 05:23:55;;;;;;;3.83;2.88;;;;;;;;;;5018018;28;20090;-72
2022/07/12 05:26:20;;;;;;;3.90;3.08;;;;;;;;;;5013841;28;20080;-72
2022/07/12 05:28:46;;;;;;;3.60;2.60;;;;;;;;;;5022145;28;20029;-73
2022/07/12 05:31:11;;;;;;;4.70;3.30;;;;;;;;;;5026131;28;20026;-73
2022/07/12 05:33:37;;;;;;;5.35;2.88;;;;;;;;;;5017334;28;20048;-73
2022/07/12 05:36:02;;;;;;;6.97;4.20;;;;;;;;;;5018265;28;20064;-73
2022/07/12 05:38:28;;;;;;;4.00;3.20;;;;;;;;;;5016457;28;20068;-73
2022/07/12 05:40:53;;;;;;;4.70;3.80;;;;;;;;;;5038183;28;20171;-72
2022/07/12 05:43:18;;;;;;;6.72;4.10;;;;;;;;;;5021933;28;20040;-72
2022/07/12 05:45:44;;;;;;;5.30;3.92;;;;;;;;;;5020746;28;20036;-74
2022/07/12 05:48:09;;;;;;;6.07;3.88;;;;;;;;;;5016258;28;20124;-72
2022/07/12 05:50:35;;;;;;;6.32;5.05;;;;;;;;;;5022763;28;20029;-73
2022/07/12 05:55:44;;;;;;;5.03;4.03;;;;;;;;;;5022789;28;20036;-74
2022/07/12 05:58:10;;;;;;;6.68;5.07;;;;;;;;;;5026383;28;20489;-73
2022/07/12 06:00:36;;;;;;;5.25;4.50;;;;;;;;;;5021144;28;20030;-73
2022/07/12 06:03:01;;;;;;;5.75;4.47;;;;;;;;;;5022127;28;20568;-72
2022/07/12 06:05:27;;;;;;;6.90;4.90;;;;;;;;;;5025833;28;20378;-73
2022/07/12 06:07:52;;;;;;;5.90;5.25;;;;;;;;;;5023833;28;20358;-72
2022/07/12 06:10:17;;;;;;;5.88;4.65;;;;;;;;;;5027355;28;20112;-73
2022/07/12 06:12:43;;;;;;;6.50;5.03;;;;;;;;;;5027705;28;20033;-73
2022/07/12 06:15:08;;;;;;;5.93;5.07;;;;;;;;;;5027304;28;20025;-72
2022/07/12 06:17:35;;;;;;;6.25;5.03;;;;;;;;;;5027798;28;20033;-73
2022/07/12 06:20:01;;;;;;;5.63;4.50;;;;;;;;;;5027831;28;20064;-73
2022/07/12 06:22:26;;;;;;;5.82;4.60;;;;;;;;;;5019369;28;20080;-73
2022/07/12 06:24:52;;;;;;;5.88;4.22;;;;;;;;;;5013144;28;20030;-72
2022/07/12 06:27:17;;;;;;;6.78;5.15;;;;;;;;;;5023917;28;20053;-73
2022/07/12 06:29:47;;;;;;;5.70;4.60;;;;;;;;;;5025576;28;20021;-72
2022/07/12 06:32:16;;;;;;;5.60;4.43;;;;;;;;;;5025082;28;20429;-73
2022/07/12 06:34:41;;;;;;;6.03;4.10;;;;;;;;;;5021523;28;20022;-74
2022/07/12 06:37:08;;;;;;;4.80;4.28;;;;;;;;;;5026425;28;20087;-73
2022/07/12 06:39:37;;;;;;;5.95;4.75;;;;;;;;;;5021135;28;20030;-74
2022/07/12 06:42:05;;;;;;;7.43;4.63;;;;;;;;;;5021055;28;20029;-73
2022/07/12 06:44:31;;;;;;;6.85;4.57;;;;;;;;;;5020275;28;20084;-74
2022/07/12 06:46:57;;;;;;;6.18;4.63;;;;;;;;;;5018204;28;20033;-73
2022/07/12 06:49:23;;;;;;;6.15;5.32;;;;;;;;;;5012694;28;20152;-72
2022/07/12 06:51:48;;;;;;;7.10;5.53;;;;;;;;;;5019820;28;20026;-74
2022/07/12 06:54:13;;;;;;;5.88;4.90;;;;;;;;;;5021298;28;20021;-72
2022/07/12 06:56:39;;;;;;;6.25;5.30;;;;;;;;;;5019256;28;20361;-74
2022/07/12 06:59:04;;;;;;;6.80;5.55;;;;;;;;;;5028524;28;20034;-74
2022/07/12 07:01:29;;;;;;;7.35;5.90;;;;;;;;;;5022553;28;20031;-73
2022/07/12 07:03:55;;;;;;;8.43;6.00;;;;;;;;;;5031756;28;20025;-72
2022/07/12 07:06:20;;;;;;;9.00;6.80;;;;;;;;;;5018235;28;20126;-72
2022/07/12 07:08:46;;;;;;;8.77;7.03;;;;;;;;;;5023377;28;20032;-73
2022/07/12 07:11:11;;;;;;;9.20;7.35;;;;;;;;;;5029554;28;20080;-74
2022/07/12 07:13:37;;;;;;;9.23;7.40;;;;;;;;;;5023721;28;20705;-73
2022/07/12 07:16:02;;;;;;;9.00;7.95;;;;;;;;;;5022431;28;20032;-74
2022/07/12 07:18:28;;;;;;;8.98;7.95;;;;;;;;;;5024369;28;20026;-74
2022/07/12 07:20:53;;;;;;;9.80;7.97;;;;;;;;;;5029395;28;20516;-72
2022/07/12 07:23:19;;;;;;;11.02;8.32;;;;;;;;;;5026589;28;20033;-73
2022/07/12 07:25:46;;;;;;;9.40;7.75;;;;;;;;;;5025775;28;20112;-74
2022/07/12 07:28:11;;;;;;;11.73;8.10;;;;;;;;;;5021838;28;20025;-73
2022/07/12 07:30:52;;;;;;;9.23;7.20;;;;;;;;;;5023584;28;20071;-72
2022/07/12 07:33:21;;;;;;;8.05;6.88;;;;;;;;;;5027131;28;20100;-72
2022/07/12 07:35:47;;;;;;;7.07;6.38;;;;;;;;;;5023207;28;20056;-72
2022/07/12 07:38:12;;;;;;;7.95;6.60;;;;;;;;;;5021302;28;20037;-74
2022/07/12 07:40:38;;;;;;;8.23;6.18;;;;;;;;;;5022966;28;20092;-74
2022/07/12 07:43:03;;;;;;;7.63;6.43;;;;;;;;;;5021647;28;20022;-72
2022/07/12 07:45:29;;;;;;;7.78;6.70;;;;;;;;;;5017255;28;20038;-73
2022/07/12 07:47:54;;;;;;;7.88;5.97;;;;;;;;;;5024294;28;20041;-73
2022/07/12 07:50:19;;;;;;;7.35;5.80;;;;;;;;;;5014026;28;20022;-73
2022/07/12 07:52:45;;;;;;;8.10;6.43;;;;;;;;;;5017899;28;20032;-72
2022/07/12 07:55:11;;;;;;;6.75;5.63;;;;;;;;;;5017711;28;20044;-74
2022/07/12 07:57:36;;;;;;;7.95;6.63;;;;;;;;;;5022702;28;20025;-72
2022/07/12 08:00:03;;;;;;;7.22;6.22;;;;;;;;;;5027566;28;20460;-72
2022/07/12 08:02:28;;;;;;;6.85;6.15;;;;;;;;;;5027170;28;20066;-74
2022/07/12 08:04:54;;;;;;;7.28;6.57;;;;;;;;;;5012847;28;20124;-72
2022/07/12 08:07:19;;;;;;;7.45;6.72;;;;;;;;;;5028327;28;20026;-73
2022/07/12 08:09:45;;;;;;;6.80;5.88;;;;;;;;;;5027261;28;20028;-72
2022/07/12 08:12:10;;;;;;;8.43;6.70;;;;;;;;;;5026794;28;20155;-73
2022/07/12 08:14:35;;;;;;;6.60;5.80;;;;;;;;;;5024464;28;20654;-73
2022/07/12 08:17:01;;;;;;;6.72;6.03;;;;;;;;;;5021665;28;20091;-72
2022/07/12 08:19:26;;;;;;;7.28;5.68;;;;;;;;;;5025195;28;20088;-74
2022/07/12 08:21:51;;;;;;;7.78;5.40;;;;;;;;;;5021787;28;20083;-73
2022/07/12 08:24:17;;;;;;;8.25;6.68;;;;;;;;;;5023520;28;20025;-73
2022/07/12 08:26:42;;;;;;;7.65;6.85;;;;;;;;;;5021538;28;20028;-72
2022/07/12 08:29:07;;;;;;;7.28;6.18;;;;;;;;;;5013265;28;20561;-72
2022/07/12 08:31:45;;;;;;;7.85;6.47;;;;;;;;;;5017814;28;20302;-75
2022/07/12 08:34:11;;;;;;;9.70;6.88;;;;;;;;;;5009990;28;20033;-73
2022/07/12 08:36:36;;;;;;;7.90;6.90;;;;;;;;;;5020871;28;20037;-73
2022/07/12 08:39:02;;;;;;;8.32;6.82;;;;;;;;;;5021617;28;20017;-73
2022/07/12 08:41:29;;;;;;;7.22;6.30;;;;;;;;;;5022931;28;20393;-74
2022/07/12 08:43:54;;;;;;;7.15;6.20;;;;;;;;;;5020120;28;20442;-73
2022/07/12 08:46:22;;;;;;;6.82;6.10;;;;;;;;;;5015399;28;20038;-73
2022/07/12 08:48:50;;;;;;;7.13;5.70;;;;;;;;;;5020882;28;20042;-73
2022/07/12 08:51:21;;;;;;;8.23;6.40;;;;;;;;;;5018881;28;20082;-74
2022/07/12 08:53:49;;;;;;;6.10;5.47;;;;;;;;;;5021301;28;20037;-73
2022/07/12 08:56:34;;;;;;;6.88;5.40;;;;;;;;;;5024204;28;20029;-74
2022/07/12 08:59:25;;;;;;;6.93;5.40;;;;;;;;;;5021566;28;20029;-73
2022/07/12 09:01:53;;;;;;;7.47;6.63;;;;;;;;;;5016134;28;20045;-73
2022/07/12 09:04:25;;;;;;;6.70;5.97;;;;;;;;;;5024239;28;20389;-74
2022/07/12 09:06:51;;;;;;;5.27;4.53;;;;;;;;;;5014321;28;20025;-75
2022/07/12 09:09:35;;;;;;;7.32;6.03;;;;;;;;;;5022437;28;20017;-73
2022/07/12 09:12:01;;;;;;;6.35;4.80;;;;;;;;;;5022880;28;20025;-75
2022/07/12 09:14:27;;;;;;;7.32;4.72;;;;;;;;;;5022849;28;20026;-74
2022/07/12 09:17:04;;;;;;;8.13;6.22;;;;;;;;;;5019056;28;20029;-74
2022/07/12 09:19:31;;;;;;;6.15;5.18;;;;;;;;;;5023191;28;20026;-73
2022/07/12 09:21:57;;;;;;;7.80;5.95;;;;;;;;;;5027849;28;20021;-73
2022/07/12 09:24:27;;;;;;;5.85;5.10;;;;;;;;;;5020571;28;20026;-74
2022/07/12 09:26:56;;;;;;;5.90;5.05;;;;;;;;;;5017836;28;20080;-73
2022/07/12 09:29:21;;;;;;;7.53;6.00;;;;;;;;;;5003251;28;20724;-74
2022/07/12 09:37:18;;;;;;;5.78;5.00;;;;;;;;;;5006530;28;20044;-73
2022/07/12 09:39:44;;;;;;;5.95;4.47;;;;;;;;;;5006981;28;20636;-74
2022/07/12 09:42:11;;;;;;;4.75;3.95;;;;;;;;;;5011078;28;20033;-74
2022/07/12 09:44:37;;;;;;;6.22;4.25;;;;;;;;;;5008778;28;20030;-74
2022/07/12 09:47:03;;;;;;;5.95;4.35;;;;;;;;;;5012089;28;20045;-74
2022/07/12 09:49:29;;;;;;;6.82;5.50;;;;;;;;;;5005344;28;20043;-74
2022/07/12 09:51:56;;;;;;;5.30;4.80;;;;;;;;;;5008969;28;20146;-74
2022/07/12 09:54:27;;;;;;;6.80;4.82;;;;;;;;;;5016777;28;20033;-74
2022/07/12 09:56:59;;;;;;;4.97;3.95;;;;;;;;;;5009190;28;20087;-73
2022/07/12 09:59:28;;;;;;;5.63;3.80;;;;;;;;;;5011116;28;20034;-75
2022/07/12 10:01:59;;;;;;;5.60;4.35;;;;;;;;;;5013615;28;20112;-73
2022/07/12 10:04:29;;;;;;;4.53;3.83;;;;;;;;;;5013629;28;20041;-74
2022/07/12 10:06:54;;;;;;;4.85;4.15;;;;;;;;;;5004933;28;20048;-74
2022/07/12 10:09:21;;;;;;;6.22;4.72;;;;;;;;;;5015527;28;20034;-73
2022/07/12 10:11:47;;;;;;;6.05;4.65;;;;;;;;;;5014326;28;20033;-74
2022/07/12 10:14:13;;;;;;;5.60;4.70;;;;;;;;;;5012222;28;20030;-74
2022/07/12 10:16:45;;;;;;;5.70;4.68;;;;;;;;;;5014358;28;20632;-72
2022/07/12 10:19:35;;;;;;;5.78;3.75;;;;;;;;;;5011668;28;20041;-72
2022/07/12 10:22:02;;;;;;;4.20;3.10;;;;;;;;;;5011800;28;20040;-74
2022/07/12 10:24:48;;;;;;;4.95;3.33;;;;;;;;;;5012060;28;20025;-73
2022/07/12 10:27:14;;;;;;;5.88;5.05;;;;;;;;;;5014467;28;20071;-75
2022/07/12 10:29:40;;;;;;;4.97;3.83;;;;;;;;;;5013076;28;20035;-75
2022/07/12 10:32:32;;;;;;;4.70;3.63;;;;;;;;;;5010901;28;20053;-73
2022/07/12 10:35:05;;;;;;;4.55;3.25;;;;;;;;;;5009225;28;20548;-76
2022/07/12 10:37:32;;;;;;;4.88;4.32;;;;;;;;;;5013000;28;20041;-76
2022/07/12 10:40:27;;;;;;;4.47;3.47;;;;;;;;;;5010832;28;20053;-73
2022/07/12 10:43:04;;;;;;;5.55;4.05;;;;;;;;;;5008895;28;20072;-71
2022/07/12 10:45:40;;;;;;;6.47;4.53;;;;;;;;;;5021128;28;20029;-75
2022/07/12 10:48:19;;;;;;;7.22;5.05;;;;;;;;;;5020079;28;20065;-71
2022/07/12 10:51:00;;;;;;;7.97;5.10;;;;;;;;;;5024019;28;20017;-72
2022/07/12 10:53:38;;;;;;;5.68;4.40;;;;;;;;;;5012573;28;20025;-73
2022/07/12 10:56:03;;;;;;;3.33;2.42;;;;;;;;;;5008007;28;20068;-73
2022/07/12 10:58:30;;;;;;;4.43;3.10;;;;;;;;;;5013851;28;20025;-73
2022/07/12 11:00:55;;;;;;;4.10;3.22;;;;;;;;;;5022931;28;20032;-72
2022/07/12 11:03:22;;;;;;;6.10;2.88;;;;;;;;;;5027171;28;20120;-72
2022/07/12 11:05:47;;;;;;;4.93;3.58;;;;;;;;;;5025009;28;20021;-72
2022/07/12 11:08:16;;;;;;;5.80;4.90;;;;;;;;;;5027721;28;20036;-73
2022/07/12 11:10:54;;;;;;;6.43;3.97;;;;;;;;;;5022365;28;20026;-72
2022/07/12 11:13:22;;;;;;;5.00;2.88;;;;;;;;;;5020537;28;20026;-74
2022/07/12 11:16:00;;;;;;;3.90;2.70;;;;;;;;;;5022615;28;20457;-72
2022/07/12 11:18:34;;;;;;;3.97;2.50;;;;;;;;;;5019902;28;20048;-72
2022/07/12 11:21:01;;;;;;;5.82;3.60;;;;;;;;;;5019977;28;20040;-74
2022/07/12 11:23:28;;;;;;;4.10;2.60;;;;;;;;;;5019998;28;20171;-73
2022/07/12 11:26:00;;;;;;;4.70;2.10;;;;;;;;;;5029319;28;20029;-73
2022/07/12 11:28:29;;;;;;;;;;;;;;;;;;5020007;28;20045;-73
2022/07/12 11:31:11;;;;;;;4.05;2.28;;;;;;;;;;5018924;28;20012;-72
2022/07/12 11:33:40;;;;;;;4.90;3.70;;;;;;;;;;5020579;28;20116;-72
2022/07/12 11:36:07;;;;;;;6.43;4.07;;;;;;;;;;5021349;28;20072;-72
2022/07/12 11:38:34;;;;;;;6.47;4.45;;;;;;;;;;5017863;28;20029;-73
2022/07/12 11:41:02;;;;;;;6.15;4.72;;;;;;;;;;5016784;28;20044;-73
2022/07/12 11:43:29;;;;;;;4.18;2.90;;;;;;;;;;5014202;28;20026;-72
2022/07/12 11:45:55;;;;;;;4.70;3.60;;;;;;;;;;5022509;28;20028;-72
2022/07/12 11:48:22;;;;;;;4.22;3.45;;;;;;;;;;5019450;28;20071;-73
2022/07/12 11:50:48;;;;;;;5.07;3.70;;;;;;;;;;5019928;28;20032;-73
2022/07/12 11:53:18;;;;;;;3.60;2.47;;;;;;;;;;5017420;28;20030;-72
2022/07/12 11:55:45;;;;;;;7.60;3.55;;;;;;;;;;5014365;28;20080;-73
2022/07/12 11:58:11;;;;;;;4.95;3.20;;;;;;;;;;5012406;28;20038;-73
2022/07/12 12:00:38;;;;;;;5.97;3.60;;;;;;;;;;5012307;28;20048;-73
2022/07/12 12:03:03;;;;;;;4.65;3.72;;;;;;;;;;5017309;28;20042;-74
2022/07/12 12:05:29;;;;;;;4.53;2.80;;;;;;;;;;5020233;28;21230;-72
2022/07/12 12:07:54;;;;;;;3.17;2.38;;;;;;;;;;5010404;28;20052;-74
2022/07/12 12:10:20;;;;;;;2.63;2.17;;;;;;;;;;5008755;28;20113;-73
2022/07/12 12:12:49;;;;;;;4.07;2.65;;;;;;;;;;5018994;28;20037;-73
2022/07/12 12:15:17;;;;;;;3.67;2.60;;;;;;;;;;5020050;28;20417;-73
2022/07/12 12:17:45;;;;;;;4.05;2.70;;;;;;;;;;5017188;28;20128;-73
2022/07/12 12:20:17;;;;;;;5.22;3.13;;;;;;;;;;5007533;28;20037;-73
2022/07/12 12:22:43;;;;;;;5.70;3.67;;;;;;;;;;5013422;28;20030;-72
2022/07/12 12:25:13;;;;;;;4.63;3.50;;;;;;;;;;5022344;28;20121;-72
2022/07/12 12:28:04;;;;;;;5.03;3.50;;;;;;;;;;5020487;28;20474;-72
2022/07/12 12:30:33;;;;;;;2.88;2.30;;;;;;;;;;5023325;28;20061;-74
2022/07/12 12:33:01;;;;;;;3.75;2.92;;;;;;;;;;5017959;28;20052;-72
2022/07/12 12:35:30;;;;;;;4.10;2.92;;;;;;;;;;5027074;28;20057;-72
2022/07/12 12:37:59;;;;;;;3.80;3.10;;;;;;;;;;5025044;28;20112;-72
2022/07/12 12:40:27;;;;;;;3.83;3.20;;;;;;;;;;5028112;28;20029;-74
2022/07/12 12:42:53;;;;;;;3.05;2.30;;;;;;;;;;5031333;28;20021;-73
2022/07/12 12:45:24;;;;;;;2.80;1.98;;;;;;;;;;5023795;28;20033;-74
2022/07/12 12:47:58;;;;;;;2.25;1.65;;;;;;;;;;5030485;28;20071;-73
2022/07/12 12:50:37;;;;;;;2.85;1.92;;;;;;;;;;5031604;28;20094;-73
2022/07/12 12:53:22;;;;;;;2.40;1.80;;;;;;;;;;5025421;28;20037;-72
2022/07/12 12:55:50;;;;;;;2.00;1.63;;;;;;;;;;5026735;28;20095;-72
2022/07/12 12:58:16;;;;;;;3.05;1.77;;;;;;;;;;5027847;28;20034;-73
2022/07/12 13:00:44;;;;;;;2.22;1.40;;;;;;;;;;5028403;28;20082;-73
2022/07/12 13:03:13;;;;;;;3.08;1.80;;;;;;;;;;5021647;28;20022;-73
2022/07/12 13:05:39;;;;;;;3.25;1.90;;;;;;;;;;5018146;28;20026;-73
2022/07/12 13:08:06;;;;;;;2.88;2.10;;;;;;;;;;5019668;28;20517;-72
2022/07/12 13:10:32;;;;;;;3.45;1.80;;;;;;;;;;5023472;28;20021;-72
2022/07/12 13:13:01;;;;;;;2.58;1.98;;;;;;;;;;5021717;28;20109;-72
2022/07/12 13:15:27;;;;;;;3.42;1.83;;;;;;;;;;5015369;28;20045;-72
2022/07/12 13:17:53;;;;;;;3.95;2.05;;;;;;;;;;5015996;28;20057;-73
2022/07/12 13:20:19;;;;;;;2.97;2.05;;;;;;;;;;5018957;28;20083;-73
2022/07/12 13:22:45;;;;;;;2.83;1.80;;;;;;;;;;5022807;28;20024;-73
2022/07/12 13:25:12;;;;;;;2.65;1.85;;;;;;;;;;5020095;28;20025;-74
2022/07/12 13:27:39;;;;;;;2.90;2.08;;;;;;;;;;5022829;28;20401;-74
2022/07/12 13:30:07;;;;;;;3.40;2.10;;;;;;;;;;5021810;28;20083;-73
2022/07/12 13:32:33;;;;;;;3.85;2.10;;;;;;;;;;5019157;28;20173;-73
2022/07/12 13:34:59;;;;;;;3.22;2.20;;;;;;;;;;5017114;28;20029;-73
2022/07/12 13:37:25;;;;;;;2.45;1.95;;;;;;;;;;5019214;28;20498;-73
2022/07/12 13:42:34;;;;;;;2.28;1.77;;;;;;;;;;5023590;28;20067;-74
2022/07/12 13:45:00;;;;;;;2.50;2.08;;;;;;;;;;5021291;28;20463;-73
2022/07/12 13:47:26;;;;;;;2.33;1.90;;;;;;;;;;5024475;28;20024;-73
2022/07/12 13:49:51;;;;;;;3.15;2.30;;;;;;;;;;5024547;28;20029;-73
2022/07/12 13:52:18;;;;;;;4.65;2.00;;;;;;;;;;5024749;28;20036;-74
2022/07/12 13:54:43;;;;;;;3.67;2.30;;;;;;;;;;5023579;28;20025;-74
2022/07/12 13:57:10;;;;;;;4.22;2.35;;;;;;;;;;5024386;28;20029;-74
2022/07/12 13:59:36;;;;;;;2.78;2.40;;;;;;;;;;5023422;28;20528;-73
2022/07/12 14:02:03;;;;;;;4.63;2.63;;;;;;;;;;5024416;28;20065;-73
2022/07/12 14:04:28;;;;;;;3.22;1.95;;;;;;;;;;5027027;28;20500;-72
2022/07/12 14:06:54;;;;;;;3.55;2.08;;;;;;;;;;5025288;28;20113;-73
2022/07/12 14:09:19;;;;;;;2.95;2.10;;;;;;;;;;5026594;28;20060;-72
2022/07/12 14:11:44;;;;;;;3.30;2.60;;;;;;;;;;5026261;28;20060;-73
2022/07/12 14:14:10;;;;;;;3.42;2.45;;;;;;;;;;5027457;28;20552;-74
2022/07/12 14:16:35;;;;;;;3.35;2.25;;;;;;;;;;5029401;28;20386;-73
2022/07/12 14:19:01;;;;;;;3.17;2.35;;;;;;;;;;5028116;28;20036;-73
2022/07/12 14:21:30;;;;;;;3.78;2.17;;;;;;;;;;5028735;28;20057;-73
2022/07/12 14:24:00;;;;;;;3.80;2.40;;;;;;;;;;5032775;28;20025;-73
2022/07/12 14:26:26;;;;;;;2.83;2.20;;;;;;;;;;5031197;28;20036;-73
2022/07/12 14:28:52;;;;;;;2.80;2.20;;;;;;;;;;5026499;28;20071;-73
2022/07/12 14:31:17;;;;;;;3.88;2.20;;;;;;;;;;5024784;28;20416;-73
2022/07/12 14:33:43;;;;;;;3.25;2.20;;;;;;;;;;5022444;28;20052;-73
2022/07/12 14:36:08;;;;;;;4.15;2.20;;;;;;;;;;5028537;28;20117;-73
2022/07/12 14:38:34;;;;;;;2.95;2.10;;;;;;;;;;5025419;28;20152;-74
2022/07/12 14:41:00;;;;;;;2.72;2.10;;;;;;;;;;5019730;28;20508;-73
2022/07/12 14:43:25;;;;;;;3.17;2.10;;;;;;;;;;5009752;28;20025;-74
2022/07/12 14:45:50;;;;;;;4.15;2.30;;;;;;;;;;5018168;28;21151;-73
2022/07/12 14:48:16;;;;;;;3.47;2.10;;;;;;;;;;5027161;28;20022;-73
2022/07/12 14:50:41;;;;;;;2.67;2.20;;;;;;;;;;5021335;28;20034;-73
2022/07/12 14:53:07;;;;;;;3.88;2.22;;;;;;;;;;5019621;28;20074;-73
2022/07/12 14:55:33;;;;;;;2.80;2.17;;;;;;;;;;5031898;28;20466;-73
2022/07/12 14:57:58;;;;;;;3.88;2.20;;;;;;;;;;5023996;28;20067;-74
2022/07/12 15:00:24;;;;;;;3.20;2.30;;;;;;;;;;5023612;28;20036;-73